Terminal Aerodrome Forecast
Issued by NWS Jackson, MS

Home | Current Version | Previous Version | Text Only | Print | Product List | Glossary On
Versions: 1 2 3 4 5 6 7 8 9 10 11 12 13 14 15
000
FTUS44 KMEG 251237 AAA
TAFTUP
TAF AMD
KTUP 251237Z 2513/2612 30004KT P6SM FEW250
     FM251600 32007KT P6SM BKN150 BKN250
     FM252200 33007KT P6SM BKN070 OVC150
     FM260100 34007KT P6SM VCSH FEW035 OVC060
      TEMPO 2601/2604 -RA BKN035
     FM260400 07008KT 6SM -RA BR SCT015 OVC035
     FM260600 10008KT 5SM RA BR SCT009 OVC015
     FM260900 10008KT 5SM RA BR BKN009 OVC015=

USA.gov is the U.S. government's official web portal to all federal, state and local government web resources and services.